Time;durP1;ratioP1;P1;durP2;ratioP2;P2;SDS_P1;SDS_P2;PMS_P1;PMS_P2;Temp;Humidity;BMP_temperature;BMP_pressure;BME280_temperature;BME280_humidity;BME280_pressure;Samples;Min_cycle;Max_cycle;Signal;HPM_P1;HPM_P2
2022/03/30 00:00:35;;;;;;;51.50;26.17;;;;;;;;;;5037731;28;20260;-66
2022/03/30 00:03:00;;;;;;;58.22;26.75;;;;;;;;;;5033837;28;20094;-65
2022/03/30 00:05:25;;;;;;;54.90;25.45;;;;;;;;;;5044273;28;20025;-66
2022/03/30 00:07:52;;;;;;;55.85;25.63;;;;;;;;;;5041023;28;20454;-66
2022/03/30 00:10:17;;;;;;;59.50;27.48;;;;;;;;;;5036342;28;20021;-66
2022/03/30 00:12:42;;;;;;;48.03;23.77;;;;;;;;;;5036860;28;20025;-66
2022/03/30 00:15:08;;;;;;;55.97;25.60;;;;;;;;;;5045979;28;20694;-66
2022/03/30 00:17:33;;;;;;;54.20;24.92;;;;;;;;;;5040400;28;20545;-66
2022/03/30 00:19:59;;;;;;;57.03;26.27;;;;;;;;;;5038406;28;20023;-66
2022/03/30 00:22:25;;;;;;;63.97;27.63;;;;;;;;;;5027140;28;20026;-66
2022/03/30 00:24:50;;;;;;;60.83;27.48;;;;;;;;;;5037627;28;20539;-65
2022/03/30 00:27:15;;;;;;;54.65;25.38;;;;;;;;;;5034517;28;20056;-65
2022/03/30 00:29:40;;;;;;;56.30;26.80;;;;;;;;;;5037429;28;20025;-66
2022/03/30 00:32:06;;;;;;;53.50;25.17;;;;;;;;;;5033806;28;20303;-66
2022/03/30 00:34:31;;;;;;;56.17;26.15;;;;;;;;;;5040713;28;20312;-65
2022/03/30 00:36:56;;;;;;;55.35;25.40;;;;;;;;;;5039319;28;20013;-66
2022/03/30 00:39:21;;;;;;;56.85;25.35;;;;;;;;;;5037490;28;20024;-65
2022/03/30 00:41:46;;;;;;;54.38;26.05;;;;;;;;;;5034038;28;20028;-66
2022/03/30 00:44:12;;;;;;;51.92;25.33;;;;;;;;;;5037741;28;20602;-66
2022/03/30 00:46:38;;;;;;;53.65;24.88;;;;;;;;;;5032499;28;20044;-66
2022/03/30 00:49:04;;;;;;;49.67;24.30;;;;;;;;;;5035980;28;20174;-66
2022/03/30 00:51:29;;;;;;;64.45;25.45;;;;;;;;;;5013841;28;20089;-65
2022/03/30 00:53:55;;;;;;;52.95;23.83;;;;;;;;;;5042840;28;20024;-66
2022/03/30 00:56:20;;;;;;;51.15;23.00;;;;;;;;;;5035565;28;20486;-66
2022/03/30 00:58:45;;;;;;;59.17;26.20;;;;;;;;;;5037541;28;20029;-66
2022/03/30 01:01:11;;;;;;;52.40;25.80;;;;;;;;;;5039314;28;20636;-66
2022/03/30 01:03:36;;;;;;;54.00;23.85;;;;;;;;;;5035465;28;20048;-66
2022/03/30 01:06:02;;;;;;;51.80;23.80;;;;;;;;;;5039091;28;20473;-66
2022/03/30 01:08:28;;;;;;;50.33;23.80;;;;;;;;;;5035899;28;20028;-66
2022/03/30 01:10:53;;;;;;;57.17;25.10;;;;;;;;;;5044201;28;20528;-66
2022/03/30 01:13:18;;;;;;;51.58;25.33;;;;;;;;;;5043410;28;20021;-65
2022/03/30 01:15:45;;;;;;;56.17;25.10;;;;;;;;;;5039175;28;20481;-65
2022/03/30 01:18:10;;;;;;;52.80;23.95;;;;;;;;;;5030553;28;20043;-66
2022/03/30 01:20:35;;;;;;;56.60;25.33;;;;;;;;;;5036650;28;20017;-66
2022/03/30 01:23:01;;;;;;;51.63;23.63;;;;;;;;;;5033267;28;20483;-66
2022/03/30 01:25:26;;;;;;;58.60;26.02;;;;;;;;;;5041731;28;20025;-65
2022/03/30 01:27:51;;;;;;;54.88;24.75;;;;;;;;;;5029899;28;20517;-66
2022/03/30 01:33:02;;;;;;;60.55;25.33;;;;;;;;;;5039150;28;20027;-66
2022/03/30 01:35:28;;;;;;;55.15;23.98;;;;;;;;;;5031976;28;20017;-66
2022/03/30 01:37:53;;;;;;;55.20;25.27;;;;;;;;;;5041878;28;20573;-66
2022/03/30 01:40:18;;;;;;;51.30;26.17;;;;;;;;;;5036416;28;20021;-65
2022/03/30 01:42:44;;;;;;;61.20;25.23;;;;;;;;;;5037962;28;20113;-66
2022/03/30 01:45:11;;;;;;;48.90;24.00;;;;;;;;;;5038220;28;20029;-65
2022/03/30 01:47:38;;;;;;;56.83;27.25;;;;;;;;;;5032029;28;20433;-66
2022/03/30 01:50:05;;;;;;;54.67;24.92;;;;;;;;;;5034649;28;20481;-65
2022/03/30 01:52:30;;;;;;;49.85;24.48;;;;;;;;;;5030524;28;20112;-66
2022/03/30 01:54:55;;;;;;;57.97;23.85;;;;;;;;;;5031930;28;20517;-66
2022/03/30 01:57:20;;;;;;;57.17;24.70;;;;;;;;;;5035557;28;20025;-66
2022/03/30 01:59:46;;;;;;;57.75;25.40;;;;;;;;;;5038656;28;20021;-66
2022/03/30 02:02:12;;;;;;;52.10;24.42;;;;;;;;;;5035897;28;20030;-66
2022/03/30 02:04:37;;;;;;;54.13;24.65;;;;;;;;;;5035595;28;20283;-66
2022/03/30 02:07:03;;;;;;;52.00;25.23;;;;;;;;;;5035181;28;20026;-66
2022/03/30 02:09:28;;;;;;;52.45;23.67;;;;;;;;;;5039095;28;20096;-66
2022/03/30 02:11:54;;;;;;;52.70;24.60;;;;;;;;;;5034468;28;20082;-66
2022/03/30 02:14:19;;;;;;;63.42;25.92;;;;;;;;;;5038083;28;20021;-66
2022/03/30 02:16:45;;;;;;;49.22;24.38;;;;;;;;;;5035820;28;20018;-66
2022/03/30 02:19:11;;;;;;;53.53;24.75;;;;;;;;;;5037122;28;20021;-66
2022/03/30 02:21:36;;;;;;;58.35;25.00;;;;;;;;;;5036974;28;20039;-66
2022/03/30 02:24:01;;;;;;;57.08;24.98;;;;;;;;;;5035378;28;20079;-65
2022/03/30 02:26:28;;;;;;;56.13;25.65;;;;;;;;;;5037528;28;20021;-66
2022/03/30 02:28:54;;;;;;;67.18;25.05;;;;;;;;;;5034263;28;20025;-66
2022/03/30 02:31:19;;;;;;;49.20;24.73;;;;;;;;;;5040472;28;20022;-66
2022/03/30 02:33:45;;;;;;;53.17;23.52;;;;;;;;;;5033383;28;20025;-66
2022/03/30 02:36:10;;;;;;;48.28;24.70;;;;;;;;;;5046247;28;20028;-66
2022/03/30 02:38:36;;;;;;;58.20;24.70;;;;;;;;;;5046413;28;20022;-66
2022/03/30 02:41:03;;;;;;;54.75;24.73;;;;;;;;;;5043831;28;20279;-66
2022/03/30 02:43:28;;;;;;;56.35;25.67;;;;;;;;;;5043944;28;20057;-66
2022/03/30 02:45:53;;;;;;;62.77;25.50;;;;;;;;;;5031841;28;20111;-66
2022/03/30 02:48:18;;;;;;;50.35;24.33;;;;;;;;;;5047120;28;20252;-66
2022/03/30 02:50:47;;;;;;;61.97;23.57;;;;;;;;;;5032937;28;20024;-66
2022/03/30 02:53:13;;;;;;;62.55;24.20;;;;;;;;;;5045778;28;20258;-65
2022/03/30 02:55:38;;;;;;;60.30;25.70;;;;;;;;;;5033818;28;20026;-66
2022/03/30 02:58:04;;;;;;;48.90;23.67;;;;;;;;;;5043204;28;20030;-66
2022/03/30 03:00:30;;;;;;;52.72;22.85;;;;;;;;;;5043291;28;20017;-66
2022/03/30 03:02:55;;;;;;;58.20;22.20;;;;;;;;;;5042232;28;20045;-66
2022/03/30 03:05:20;;;;;;;55.42;24.08;;;;;;;;;;5035454;28;20421;-66
2022/03/30 03:07:45;;;;;;;55.58;25.90;;;;;;;;;;5042221;28;20391;-66
2022/03/30 03:10:10;;;;;;;57.83;25.27;;;;;;;;;;5044143;28;20380;-66
2022/03/30 03:12:36;;;;;;;52.80;24.00;;;;;;;;;;5037164;28;20267;-66
2022/03/30 03:15:01;;;;;;;61.95;26.52;;;;;;;;;;5048232;28;20287;-66
2022/03/30 03:17:26;;;;;;;63.03;26.33;;;;;;;;;;5038177;28;20029;-65
2022/03/30 03:19:51;;;;;;;60.67;25.35;;;;;;;;;;5039056;28;20109;-66
2022/03/30 03:22:17;;;;;;;60.53;25.53;;;;;;;;;;5035300;28;20025;-66
2022/03/30 03:24:42;;;;;;;57.00;24.17;;;;;;;;;;5043457;28;20333;-65
2022/03/30 03:27:07;;;;;;;50.33;23.67;;;;;;;;;;5042877;28;20022;-66
2022/03/30 03:29:33;;;;;;;55.97;24.35;;;;;;;;;;5032672;28;20306;-66
2022/03/30 03:31:58;;;;;;;62.35;25.85;;;;;;;;;;5044233;28;20033;-66
2022/03/30 03:34:23;;;;;;;57.78;24.25;;;;;;;;;;5031644;28;20021;-66
2022/03/30 03:36:48;;;;;;;56.83;24.92;;;;;;;;;;5032733;28;20032;-66
2022/03/30 03:39:13;;;;;;;59.20;25.35;;;;;;;;;;5031892;28;20025;-66
2022/03/30 03:41:39;;;;;;;55.00;24.38;;;;;;;;;;5040651;28;20021;-66
2022/03/30 03:44:04;;;;;;;56.00;25.20;;;;;;;;;;5038871;28;20436;-66
2022/03/30 03:46:29;;;;;;;60.15;25.10;;;;;;;;;;5029730;28;20481;-66
2022/03/30 03:48:55;;;;;;;56.33;24.58;;;;;;;;;;5046256;28;20020;-66
2022/03/30 03:51:21;;;;;;;58.33;26.45;;;;;;;;;;5037740;28;20026;-66
2022/03/30 03:53:46;;;;;;;55.83;24.65;;;;;;;;;;5041824;28;20025;-66
2022/03/30 03:56:11;;;;;;;66.03;27.80;;;;;;;;;;5042166;28;20470;-65
2022/03/30 03:58:36;;;;;;;51.63;25.08;;;;;;;;;;5048068;28;20266;-66
2022/03/30 04:01:01;;;;;;;59.63;26.65;;;;;;;;;;5044561;28;20044;-66
2022/03/30 04:03:27;;;;;;;60.20;25.08;;;;;;;;;;5044696;28;20028;-65
2022/03/30 04:05:52;;;;;;;55.72;25.27;;;;;;;;;;5045039;28;20021;-66
2022/03/30 04:08:17;;;;;;;61.50;25.38;;;;;;;;;;5031704;28;20017;-63
2022/03/30 04:10:42;;;;;;;62.90;24.65;;;;;;;;;;5041545;28;20025;-63
2022/03/30 04:13:09;;;;;;;59.00;24.88;;;;;;;;;;5031697;28;20029;-63
2022/03/30 04:15:35;;;;;;;58.03;26.67;;;;;;;;;;5043001;28;20021;-65
2022/03/30 04:18:00;;;;;;;53.10;25.55;;;;;;;;;;5035901;28;20485;-66
2022/03/30 04:20:26;;;;;;;57.85;26.95;;;;;;;;;;5041487;28;20481;-65
2022/03/30 04:22:51;;;;;;;65.68;25.15;;;;;;;;;;5041264;28;20124;-66
2022/03/30 04:25:16;;;;;;;58.17;26.70;;;;;;;;;;5039232;28;20386;-66
2022/03/30 04:27:45;;;;;;;55.10;25.83;;;;;;;;;;5031071;28;20431;-65
2022/03/30 04:30:11;;;;;;;64.35;25.90;;;;;;;;;;5057624;22;20479;-86
2022/03/30 04:32:36;;;;;;;62.95;26.45;;;;;;;;;;5008433;28;20025;-87
2022/03/30 04:35:01;;;;;;;52.08;25.38;;;;;;;;;;5029072;28;20045;-88
2022/03/30 04:37:27;;;;;;;58.35;26.95;;;;;;;;;;5012853;28;20059;-86
2022/03/30 04:39:52;;;;;;;61.63;27.40;;;;;;;;;;5031556;28;20033;-88
2022/03/30 04:42:20;;;;;;;55.75;26.52;;;;;;;;;;5013571;28;20485;-86
2022/03/30 04:44:45;;;;;;;56.38;26.92;;;;;;;;;;5006138;28;20036;-88
2022/03/30 04:47:10;;;;;;;59.90;25.60;;;;;;;;;;5007084;28;20026;-86
2022/03/30 04:49:35;;;;;;;61.47;26.50;;;;;;;;;;5006015;28;20083;-86
2022/03/30 04:52:01;;;;;;;60.55;27.08;;;;;;;;;;5020451;28;20769;-87
2022/03/30 04:54:26;;;;;;;58.75;27.38;;;;;;;;;;5008861;28;20018;-87
2022/03/30 04:56:51;;;;;;;65.20;29.08;;;;;;;;;;5016635;28;20048;-88
2022/03/30 04:59:17;;;;;;;65.45;26.45;;;;;;;;;;5009303;28;20067;-88
2022/03/30 05:01:42;;;;;;;60.70;27.23;;;;;;;;;;5045681;28;20032;-86
2022/03/30 05:04:08;;;;;;;63.17;27.13;;;;;;;;;;5023109;28;20145;-87
2022/03/30 05:07:14;;;;;;;65.30;26.20;;;;;;;;;;5034431;28;20032;-87
2022/03/30 05:09:45;;;;;;;55.67;25.02;;;;;;;;;;5005073;28;20413;-87
2022/03/30 05:12:11;;;;;;;70.07;28.15;;;;;;;;;;5010863;28;20029;-87
2022/03/30 05:15:06;;;;;;;58.65;27.08;;;;;;;;;;5000784;28;20030;-87
2022/03/30 05:20:20;;;;;;;63.00;26.70;;;;;;;;;;5019484;28;20064;-86
2022/03/30 05:22:48;;;;;;;68.03;28.52;;;;;;;;;;5024645;28;20561;-87
2022/03/30 05:25:24;;;;;;;63.80;27.15;;;;;;;;;;5016507;28;20029;-86
2022/03/30 05:27:51;;;;;;;67.32;29.70;;;;;;;;;;5015930;28;20018;-88
2022/03/30 05:30:25;;;;;;;78.13;30.55;;;;;;;;;;5013287;28;20036;-86
2022/03/30 05:33:01;;;;;;;64.53;30.10;;;;;;;;;;5006780;28;20018;-87
2022/03/30 05:35:29;;;;;;;68.90;29.27;;;;;;;;;;5008679;28;20120;-87
2022/03/30 05:38:05;;;;;;;67.68;27.63;;;;;;;;;;5015478;28;20025;-87
2022/03/30 05:40:34;;;;;;;77.20;31.27;;;;;;;;;;5012609;28;20140;-88
2022/03/30 05:43:00;;;;;;;61.63;28.67;;;;;;;;;;5009592;28;20471;-86
2022/03/30 05:45:37;;;;;;;65.68;28.05;;;;;;;;;;5003887;28;20049;-85
2022/03/30 05:48:05;;;;;;;76.53;30.02;;;;;;;;;;5027678;28;20440;-87
2022/03/30 05:50:39;;;;;;;60.38;28.27;;;;;;;;;;5007615;28;20032;-87
2022/03/30 05:53:04;;;;;;;57.35;28.33;;;;;;;;;;5020261;28;20044;-88
2022/03/30 05:55:51;;;;;;;66.32;28.35;;;;;;;;;;5014664;28;20808;-85
2022/03/30 05:58:16;;;;;;;70.85;30.10;;;;;;;;;;5010084;28;20671;-86
2022/03/30 06:00:45;;;;;;;64.05;28.58;;;;;;;;;;5031871;28;20078;-86
2022/03/30 06:03:10;;;;;;;59.10;27.92;;;;;;;;;;5017767;28;20024;-84
2022/03/30 06:05:36;;;;;;;67.85;28.17;;;;;;;;;;5004870;28;20022;-86
2022/03/30 06:08:01;;;;;;;64.10;28.02;;;;;;;;;;5009141;28;20058;-85
2022/03/30 06:10:27;;;;;;;74.78;28.98;;;;;;;;;;5024766;28;20018;-85
2022/03/30 06:12:53;;;;;;;68.80;27.95;;;;;;;;;;5012186;28;20071;-84
2022/03/30 06:15:19;;;;;;;70.93;29.38;;;;;;;;;;5010368;28;20021;-85
2022/03/30 06:17:44;;;;;;;70.28;31.63;;;;;;;;;;5011784;28;20025;-85
2022/03/30 06:20:10;;;;;;;71.93;28.67;;;;;;;;;;5011006;28;20392;-85
2022/03/30 06:22:36;;;;;;;69.90;29.25;;;;;;;;;;5011749;28;20039;-86
2022/03/30 06:25:01;;;;;;;63.97;28.08;;;;;;;;;;5027507;28;20033;-86
2022/03/30 06:27:27;;;;;;;65.85;27.02;;;;;;;;;;5004956;28;20026;-87
2022/03/30 06:29:52;;;;;;;60.05;28.63;;;;;;;;;;5014243;28;20025;-87
2022/03/30 06:32:18;;;;;;;65.57;28.80;;;;;;;;;;5006170;28;20017;-85
2022/03/30 06:34:43;;;;;;;72.20;27.75;;;;;;;;;;5026240;28;20040;-86
2022/03/30 06:37:08;;;;;;;69.00;29.27;;;;;;;;;;5001459;28;20029;-87
2022/03/30 06:39:34;;;;;;;70.05;28.48;;;;;;;;;;4997910;28;20064;-86
2022/03/30 06:41:59;;;;;;;67.57;28.27;;;;;;;;;;5002590;28;20022;-85
2022/03/30 06:44:24;;;;;;;61.85;29.23;;;;;;;;;;5015005;28;20095;-87
2022/03/30 06:46:50;;;;;;;60.55;28.10;;;;;;;;;;5027497;28;20026;-86
2022/03/30 06:49:15;;;;;;;67.40;27.92;;;;;;;;;;4996174;28;20528;-85
2022/03/30 06:51:41;;;;;;;65.13;28.00;;;;;;;;;;4996790;28;20015;-87
2022/03/30 06:54:06;;;;;;;62.13;27.10;;;;;;;;;;5028672;28;20017;-85
2022/03/30 06:56:31;;;;;;;64.90;29.33;;;;;;;;;;5011426;28;20187;-87
2022/03/30 06:58:57;;;;;;;61.80;28.60;;;;;;;;;;5015030;28;20026;-87
2022/03/30 07:01:22;;;;;;;53.20;25.40;;;;;;;;;;5003922;28;20453;-87
2022/03/30 07:03:47;;;;;;;73.13;29.98;;;;;;;;;;5004501;28;20424;-87
2022/03/30 07:06:12;;;;;;;61.30;27.55;;;;;;;;;;5014056;28;20017;-85
2022/03/30 07:11:22;;;;;;;59.55;27.73;;;;;;;;;;5018595;28;20029;-87
2022/03/30 07:13:47;;;;;;;59.63;28.90;;;;;;;;;;5010289;28;20017;-86
2022/03/30 07:16:13;;;;;;;63.53;29.58;;;;;;;;;;5028190;28;20021;-88
2022/03/30 07:18:38;;;;;;;61.13;29.33;;;;;;;;;;5012397;28;20024;-86
2022/03/30 07:21:03;;;;;;;65.78;28.08;;;;;;;;;;5011604;28;20029;-87
2022/03/30 07:23:29;;;;;;;74.10;28.02;;;;;;;;;;5008812;28;20390;-85
2022/03/30 07:25:54;;;;;;;67.35;29.83;;;;;;;;;;5026551;28;20040;-88
2022/03/30 07:28:19;;;;;;;66.93;29.35;;;;;;;;;;5026215;28;20017;-85
2022/03/30 07:30:45;;;;;;;60.15;27.73;;;;;;;;;;5028859;28;20043;-87
2022/03/30 07:33:10;;;;;;;57.58;27.95;;;;;;;;;;5026775;28;20489;-87
2022/03/30 07:35:37;;;;;;;57.80;27.48;;;;;;;;;;5015086;28;20052;-85
2022/03/30 07:38:03;;;;;;;61.88;27.50;;;;;;;;;;5001060;28;20028;-87
2022/03/30 07:40:29;;;;;;;54.47;26.95;;;;;;;;;;5018829;28;20767;-88
2022/03/30 07:42:55;;;;;;;68.70;27.55;;;;;;;;;;5000578;28;20207;-86
2022/03/30 07:45:21;;;;;;;55.25;26.20;;;;;;;;;;5000392;28;20025;-86
2022/03/30 07:47:47;;;;;;;56.35;26.52;;;;;;;;;;5002160;28;20017;-88
2022/03/30 07:50:12;;;;;;;54.58;27.30;;;;;;;;;;5010082;28;20041;-86
2022/03/30 07:52:38;;;;;;;51.92;25.92;;;;;;;;;;5028904;23;20038;-68
2022/03/30 07:55:07;;;;;;;49.65;23.67;;;;;;;;;;5006710;28;20440;-68
2022/03/30 07:57:34;;;;;;;63.15;26.20;;;;;;;;;;5000704;28;20023;-68
2022/03/30 08:00:00;;;;;;;50.80;24.30;;;;;;;;;;5007059;28;20033;-68
2022/03/30 08:02:27;;;;;;;49.97;24.73;;;;;;;;;;5000556;28;20029;-68
2022/03/30 08:04:52;;;;;;;44.58;22.83;;;;;;;;;;5009365;23;20117;-65
2022/03/30 08:07:21;;;;;;;46.65;22.48;;;;;;;;;;4984538;28;20262;-66
2022/03/30 08:09:47;;;;;;;46.90;23.27;;;;;;;;;;4985260;28;20266;-65
2022/03/30 08:12:14;;;;;;;41.67;22.02;;;;;;;;;;4987567;28;21237;-65
2022/03/30 08:14:40;;;;;;;47.92;22.52;;;;;;;;;;4999848;28;20097;-65
2022/03/30 08:17:05;;;;;;;38.50;21.40;;;;;;;;;;4996640;28;20097;-65
2022/03/30 08:19:30;;;;;;;41.53;20.42;;;;;;;;;;4993705;28;20383;-66
2022/03/30 08:24:39;;;;;;;43.33;20.35;;;;;;;;;;4994703;28;20102;-65
2022/03/30 08:27:04;;;;;;;46.67;19.90;;;;;;;;;;4996816;28;20100;-66
2022/03/30 08:29:30;;;;;;;33.63;20.38;;;;;;;;;;4997603;28;20492;-65
2022/03/30 08:31:55;;;;;;;35.57;19.87;;;;;;;;;;4995572;28;20455;-65
2022/03/30 08:34:20;;;;;;;43.73;19.80;;;;;;;;;;4989673;28;20073;-66
2022/03/30 08:36:45;;;;;;;42.88;20.55;;;;;;;;;;4999511;28;20339;-66
2022/03/30 08:39:11;;;;;;;38.42;19.52;;;;;;;;;;5000611;28;20030;-65
2022/03/30 08:41:39;;;;;;;42.58;21.65;;;;;;;;;;4996422;28;20490;-65
2022/03/30 08:44:04;;;;;;;38.10;19.77;;;;;;;;;;4999287;28;20108;-65
2022/03/30 08:46:30;;;;;;;40.75;19.88;;;;;;;;;;4984556;28;20493;-66
2022/03/30 08:48:56;;;;;;;39.28;19.42;;;;;;;;;;4983688;28;20081;-66
2022/03/30 08:51:21;;;;;;;40.33;20.42;;;;;;;;;;4980950;28;20034;-65
2022/03/30 08:53:48;;;;;;;41.40;20.10;;;;;;;;;;4966020;28;20124;-65
2022/03/30 08:56:14;;;;;;;43.83;22.10;;;;;;;;;;4983147;28;20514;-65
2022/03/30 08:58:39;;;;;;;51.90;21.60;;;;;;;;;;4982643;28;20027;-65
2022/03/30 09:01:09;;;;;;;41.43;20.23;;;;;;;;;;4985252;28;20105;-65
2022/03/30 09:03:34;;;;;;;40.78;19.73;;;;;;;;;;4985149;28;21120;-65
2022/03/30 09:06:00;;;;;;;37.15;17.95;;;;;;;;;;4979684;28;20038;-65
2022/03/30 09:08:27;;;;;;;38.70;18.13;;;;;;;;;;4985642;28;20022;-65
2022/03/30 09:10:53;;;;;;;41.60;17.38;;;;;;;;;;4991537;28;20023;-65
2022/03/30 09:13:19;;;;;;;42.60;18.65;;;;;;;;;;4993698;28;20044;-65
2022/03/30 09:15:45;;;;;;;36.22;18.63;;;;;;;;;;4993047;28;20482;-65
2022/03/30 09:18:10;;;;;;;38.53;18.58;;;;;;;;;;4998865;28;20022;-65
2022/03/30 09:20:37;;;;;;;40.53;17.25;;;;;;;;;;4995472;28;20399;-65
2022/03/30 09:23:02;;;;;;;37.08;15.23;;;;;;;;;;4985858;28;20022;-65
2022/03/30 09:25:31;;;;;;;32.60;15.73;;;;;;;;;;4973041;28;20034;-66
2022/03/30 09:27:57;;;;;;;41.55;16.25;;;;;;;;;;4993356;28;20018;-65
2022/03/30 09:30:24;;;;;;;32.33;15.55;;;;;;;;;;4996595;28;20459;-65
2022/03/30 09:32:52;;;;;;;40.15;15.75;;;;;;;;;;4994656;28;20113;-65
2022/03/30 09:35:28;;;;;;;37.65;17.40;;;;;;;;;;4988818;28;20091;-65
2022/03/30 09:38:04;;;;;;;35.65;16.27;;;;;;;;;;4989108;28;20025;-66
2022/03/30 09:40:33;;;;;;;35.72;16.75;;;;;;;;;;4981609;28;20050;-65
2022/03/30 09:43:17;;;;;;;39.80;17.60;;;;;;;;;;4989486;28;20030;-65
2022/03/30 09:45:43;;;;;;;38.75;16.73;;;;;;;;;;4990346;28;20036;-65
2022/03/30 09:48:24;;;;;;;34.90;17.48;;;;;;;;;;5002745;28;20030;-65
2022/03/30 09:50:51;;;;;;;45.88;17.58;;;;;;;;;;4998564;28;20203;-65
2022/03/30 09:53:17;;;;;;;126.07;24.50;;;;;;;;;;4994144;28;20037;-65
2022/03/30 09:55:59;;;;;;;45.92;16.25;;;;;;;;;;4986359;28;20026;-65
2022/03/30 09:58:26;;;;;;;36.70;17.98;;;;;;;;;;4996459;28;20108;-65
2022/03/30 10:01:01;;;;;;;42.95;18.13;;;;;;;;;;4995387;28;20075;-66
2022/03/30 10:03:36;;;;;;;39.15;16.75;;;;;;;;;;4990649;28;20027;-65
2022/03/30 10:06:01;;;;;;;30.48;17.70;;;;;;;;;;4998538;28;20029;-65
2022/03/30 10:08:26;;;;;;;32.53;16.15;;;;;;;;;;4987077;28;20072;-65
2022/03/30 10:10:52;;;;;;;35.90;17.90;;;;;;;;;;4992105;28;20023;-65
2022/03/30 10:13:18;;;;;;;33.63;16.70;;;;;;;;;;4993355;28;20307;-65
2022/03/30 10:15:43;;;;;;;30.95;16.58;;;;;;;;;;4990164;28;20113;-66
2022/03/30 10:18:08;;;;;;;37.13;16.23;;;;;;;;;;5000262;28;20081;-65
2022/03/30 10:20:33;;;;;;;28.80;16.20;;;;;;;;;;4985393;28;20744;-66
2022/03/30 10:23:12;;;;;;;35.65;16.40;;;;;;;;;;4984539;28;20281;-65
2022/03/30 10:25:38;;;;;;;32.75;16.60;;;;;;;;;;4982340;28;20680;-65
2022/03/30 10:28:24;;;;;;;33.90;16.83;;;;;;;;;;4983110;28;20105;-66
2022/03/30 10:30:53;;;;;;;35.13;16.95;;;;;;;;;;4990883;28;20025;-66
2022/03/30 10:33:29;;;;;;;32.05;16.70;;;;;;;;;;4978601;28;20027;-65
2022/03/30 10:35:55;;;;;;;28.15;14.68;;;;;;;;;;4998338;28;20098;-65
2022/03/30 10:38:20;;;;;;;30.48;14.70;;;;;;;;;;4996908;28;20026;-66
2022/03/30 10:40:46;;;;;;;31.93;15.63;;;;;;;;;;4999524;28;20102;-65
2022/03/30 10:43:12;;;;;;;40.92;16.27;;;;;;;;;;4992046;28;20293;-66
2022/03/30 10:45:45;;;;;;;31.92;15.90;;;;;;;;;;5000364;28;20091;-65
2022/03/30 10:48:22;;;;;;;35.13;16.55;;;;;;;;;;4988686;28;20037;-65
2022/03/30 10:50:49;;;;;;;33.05;15.35;;;;;;;;;;5002439;28;20023;-65
2022/03/30 10:53:29;;;;;;;32.83;16.25;;;;;;;;;;4992220;28;20506;-65
2022/03/30 10:55:55;;;;;;;;;;;;;;;;;;4992887;28;20026;-66
2022/03/30 10:58:20;;;;;;;34.10;15.38;;;;;;;;;;4998485;28;19909;-66
2022/03/30 11:00:45;;;;;;;26.73;13.32;;;;;;;;;;5008168;28;20030;-65
2022/03/30 11:03:16;;;;;;;36.10;16.67;;;;;;;;;;4991273;28;20022;-65
2022/03/30 11:06:00;;;;;;;33.78;13.82;;;;;;;;;;5004501;28;20037;-65
2022/03/30 11:08:32;;;;;;;30.80;13.73;;;;;;;;;;5006908;28;20046;-65
2022/03/30 11:11:00;;;;;;;31.55;14.90;;;;;;;;;;5001961;28;20601;-65
2022/03/30 11:13:25;;;;;;;32.05;15.32;;;;;;;;;;5000342;28;20025;-65
2022/03/30 11:15:56;;;;;;;32.85;15.15;;;;;;;;;;4997864;28;20026;-65
2022/03/30 11:18:22;;;;;;;30.38;15.30;;;;;;;;;;4983981;28;20522;-65
2022/03/30 11:21:26;;;;;;;31.47;13.63;;;;;;;;;;4986226;28;20049;-65
2022/03/30 11:24:08;;;;;;;30.83;15.05;;;;;;;;;;4935842;29;20705;-65
2022/03/30 11:26:56;;;;;;;30.55;16.02;;;;;;;;;;4935434;29;20027;-65
2022/03/30 11:29:39;;;;;;;31.88;15.23;;;;;;;;;;4963024;28;20030;-65
2022/03/30 11:32:23;;;;;;;31.77;15.38;;;;;;;;;;5000191;28;20105;-65
2022/03/30 11:34:52;;;;;;;29.58;16.10;;;;;;;;;;5000487;28;20101;-66
2022/03/30 11:37:17;;;;;;;32.17;15.75;;;;;;;;;;5000362;28;20019;-65
2022/03/30 11:39:44;;;;;;;42.72;18.98;;;;;;;;;;4997532;28;20442;-65
2022/03/30 11:42:10;;;;;;;32.45;17.10;;;;;;;;;;4998625;28;20037;-65
2022/03/30 11:47:21;;;;;;;30.20;15.88;;;;;;;;;;4990422;28;20033;-65
2022/03/30 11:49:54;;;;;;;38.08;16.98;;;;;;;;;;5006891;28;20164;-65
2022/03/30 11:52:19;;;;;;;32.92;16.77;;;;;;;;;;4991581;28;20041;-66
2022/03/30 11:54:46;;;;;;;32.38;15.50;;;;;;;;;;5004510;28;20025;-65
2022/03/30 11:57:11;;;;;;;33.38;14.70;;;;;;;;;;4992924;28;20153;-65
2022/03/30 11:59:36;;;;;;;27.00;14.43;;;;;;;;;;5008727;28;20093;-65
2022/03/30 12:02:02;;;;;;;26.35;13.90;;;;;;;;;;5011984;28;20256;-65
2022/03/30 12:04:33;;;;;;;27.52;13.68;;;;;;;;;;4995986;28;20019;-65
2022/03/30 12:06:58;;;;;;;27.83;14.95;;;;;;;;;;4996150;28;20030;-65
2022/03/30 12:09:24;;;;;;;28.70;14.33;;;;;;;;;;4999436;28;20498;-65
2022/03/30 12:11:49;;;;;;;34.10;15.98;;;;;;;;;;4999543;28;20317;-65
2022/03/30 12:14:26;;;;;;;31.23;14.88;;;;;;;;;;4985987;28;20117;-65
2022/03/30 12:16:52;;;;;;;33.50;14.88;;;;;;;;;;5000654;28;20049;-64
2022/03/30 12:19:19;;;;;;;23.45;13.90;;;;;;;;;;5000265;28;20680;-65
2022/03/30 12:21:44;;;;;;;23.63;13.43;;;;;;;;;;4996456;28;20041;-65
2022/03/30 12:24:11;;;;;;;27.73;13.85;;;;;;;;;;4996331;28;20022;-65
2022/03/30 12:26:36;;;;;;;24.15;13.18;;;;;;;;;;5000096;28;20415;-65
2022/03/30 12:29:02;;;;;;;23.98;12.82;;;;;;;;;;5008409;28;20021;-65
2022/03/30 12:31:31;;;;;;;32.65;12.80;;;;;;;;;;5000061;28;20018;-65
2022/03/30 12:33:56;;;;;;;27.50;12.70;;;;;;;;;;5005667;28;20037;-65
2022/03/30 12:36:21;;;;;;;26.77;13.50;;;;;;;;;;5010101;28;20062;-65
2022/03/30 12:38:49;;;;;;;27.27;14.43;;;;;;;;;;5004660;28;20749;-65
2022/03/30 12:41:24;;;;;;;31.52;14.13;;;;;;;;;;4995630;28;20284;-65
2022/03/30 12:43:56;;;;;;;27.90;13.32;;;;;;;;;;5001665;28;20053;-65
2022/03/30 12:46:21;;;;;;;19.00;10.57;;;;;;;;;;5005053;28;20045;-65
2022/03/30 12:48:47;;;;;;;26.47;11.50;;;;;;;;;;5004917;28;20123;-65
2022/03/30 12:51:17;;;;;;;29.90;13.15;;;;;;;;;;5002863;28;20276;-65
2022/03/30 12:53:45;;;;;;;24.13;12.30;;;;;;;;;;5007009;28;20528;-65
2022/03/30 12:56:11;;;;;;;26.25;12.35;;;;;;;;;;4992850;28;20122;-65
2022/03/30 12:58:48;;;;;;;26.10;12.27;;;;;;;;;;4998220;28;20518;-65
2022/03/30 13:01:25;;;;;;;23.83;11.77;;;;;;;;;;4992664;28;20250;-65
2022/03/30 13:03:52;;;;;;;22.85;11.55;;;;;;;;;;5002956;28;20435;-65
2022/03/30 13:06:19;;;;;;;27.65;11.48;;;;;;;;;;4997705;28;20057;-65
2022/03/30 13:09:01;;;;;;;23.05;9.27;;;;;;;;;;5004057;28;20025;-65
2022/03/30 13:11:26;;;;;;;22.45;10.57;;;;;;;;;;4994063;28;20088;-65
2022/03/30 13:13:52;;;;;;;23.67;11.77;;;;;;;;;;4999657;28;20018;-65
2022/03/30 13:16:17;;;;;;;26.80;12.85;;;;;;;;;;5003301;28;20112;-65
2022/03/30 13:18:58;;;;;;;20.67;10.38;;;;;;;;;;5001067;28;20072;-65
2022/03/30 13:21:23;;;;;;;23.88;10.80;;;;;;;;;;4989801;28;20081;-65
2022/03/30 13:23:49;;;;;;;19.30;10.00;;;;;;;;;;5005311;28;20026;-65
2022/03/30 13:26:28;;;;;;;25.52;10.93;;;;;;;;;;5007219;28;20316;-65
2022/03/30 13:28:53;;;;;;;22.80;10.40;;;;;;;;;;4997548;28;20025;-65
2022/03/30 13:31:19;;;;;;;34.22;10.23;;;;;;;;;;5006937;28;20033;-65
2022/03/30 13:33:45;;;;;;;24.70;11.23;;;;;;;;;;5000163;28;20018;-65
2022/03/30 13:36:11;;;;;;;21.98;11.05;;;;;;;;;;4990103;28;20026;-65
2022/03/30 13:38:36;;;;;;;26.77;11.40;;;;;;;;;;4998968;28;20101;-65
2022/03/30 13:41:02;;;;;;;23.50;10.90;;;;;;;;;;5003856;28;20092;-65
2022/03/30 13:43:27;;;;;;;23.42;11.10;;;;;;;;;;4999233;28;20106;-65
2022/03/30 13:45:52;;;;;;;21.67;11.02;;;;;;;;;;5005888;28;20054;-65
2022/03/30 13:48:17;;;;;;;23.57;11.47;;;;;;;;;;5001673;28;20402;-65
2022/03/30 13:50:43;;;;;;;26.38;13.18;;;;;;;;;;4991345;28;20277;-65
2022/03/30 13:53:08;;;;;;;25.03;13.30;;;;;;;;;;4987702;28;20026;-65
2022/03/30 13:55:34;;;;;;;28.70;13.53;;;;;;;;;;4997230;28;20257;-65
2022/03/30 13:57:59;;;;;;;34.08;14.05;;;;;;;;;;4995470;28;20753;-65
2022/03/30 14:00:26;;;;;;;25.02;11.70;;;;;;;;;;5002607;28;20018;-65
2022/03/30 14:02:53;;;;;;;22.63;12.15;;;;;;;;;;5004867;28;20096;-65
2022/03/30 14:07:46;;;;;;;27.45;11.88;;;;;;;;;;4982468;28;20097;-70
2022/03/30 14:10:11;;;;;;;32.72;12.00;;;;;;;;;;4991901;28;20019;-68
2022/03/30 14:12:36;;;;;;;25.55;12.25;;;;;;;;;;4989065;28;20092;-69
2022/03/30 14:15:02;;;;;;;26.30;11.85;;;;;;;;;;4989287;28;20015;-70
2022/03/30 14:17:27;;;;;;;32.33;13.13;;;;;;;;;;4993879;28;20050;-68
2022/03/30 14:19:52;;;;;;;23.43;11.00;;;;;;;;;;4995092;28;20021;-68
2022/03/30 14:22:18;;;;;;;24.08;10.93;;;;;;;;;;4998051;28;20273;-69
2022/03/30 14:24:43;;;;;;;23.85;11.20;;;;;;;;;;4994684;28;20645;-69
2022/03/30 14:27:08;;;;;;;23.37;10.37;;;;;;;;;;4996504;28;20022;-69
2022/03/30 14:29:34;;;;;;;23.33;10.33;;;;;;;;;;4999893;28;20688;-70
2022/03/30 14:31:59;;;;;;;20.80;9.82;;;;;;;;;;5009673;28;20365;-70
2022/03/30 14:34:24;;;;;;;20.00;10.25;;;;;;;;;;5007799;28;20428;-69